sensor_id;sensor_type;location;lat;lon;timestamp;P1;P2;P0
71794;PMS7003;59641;45.188;5.712;2024-03-08T00:01:13;13.00;13.00;10.75
71794;PMS7003;59641;45.188;5.712;2024-03-08T00:03:39;17.75;16.25;10.50
71794;PMS7003;59641;45.188;5.712;2024-03-08T00:06:05;17.75;14.50;11.25
71794;PMS7003;59641;45.188;5.712;2024-03-08T00:08:31;16.50;14.50;9.75
71794;PMS7003;59641;45.188;5.712;2024-03-08T00:10:56;16.50;12.50;10.00
71794;PMS7003;59641;45.188;5.712;2024-03-08T00:13:21;13.25;13.00;10.25
71794;PMS7003;59641;45.188;5.712;2024-03-08T00:15:47;14.75;14.75;11.00
71794;PMS7003;59641;45.188;5.712;2024-03-08T00:18:12;13.00;12.75;10.00
71794;PMS7003;59641;45.188;5.712;2024-03-08T00:20:38;15.75;14.25;10.25
71794;PMS7003;59641;45.188;5.712;2024-03-08T00:23:03;12.50;11.50;10.00
71794;PMS7003;59641;45.188;5.712;2024-03-08T00:25:29;18.75;17.00;12.00
71794;PMS7003;59641;45.188;5.712;2024-03-08T00:27:54;20.00;17.50;13.25
71794;PMS7003;59641;45.188;5.712;2024-03-08T00:30:21;26.67;24.00;16.67
71794;PMS7003;59641;45.188;5.712;2024-03-08T00:32:48;26.67;21.67;16.33
71794;PMS7003;59641;45.188;5.712;2024-03-08T00:35:13;26.33;21.00;15.00
71794;PMS7003;59641;45.188;5.712;2024-03-08T00:37:39;21.00;19.25;14.00
71794;PMS7003;59641;45.188;5.712;2024-03-08T00:40:05;27.00;23.00;15.33
71794;PMS7003;59641;45.188;5.712;2024-03-08T00:42:31;24.67;22.33;14.67
71794;PMS7003;59641;45.188;5.712;2024-03-08T00:44:58;23.33;20.00;14.67
71794;PMS7003;59641;45.188;5.712;2024-03-08T00:47:23;21.00;18.67;13.67
71794;PMS7003;59641;45.188;5.712;2024-03-08T00:49:49;18.25;16.50;13.75
71794;PMS7003;59641;45.188;5.712;2024-03-08T00:52:14;22.25;21.00;13.00
71794;PMS7003;59641;45.188;5.712;2024-03-08T00:54:39;17.75;17.00;11.75
71794;PMS7003;59641;45.188;5.712;2024-03-08T00:57:05;10.75;9.00;6.75
71794;PMS7003;59641;45.188;5.712;2024-03-08T00:59:31;21.33;18.00;13.00
71794;PMS7003;59641;45.188;5.712;2024-03-08T01:02:01;13.00;13.00;10.00
71794;PMS7003;59641;45.188;5.712;2024-03-08T01:04:26;16.75;15.25;12.50
71794;PMS7003;59641;45.188;5.712;2024-03-08T01:06:55;18.50;16.75;12.00
71794;PMS7003;59641;45.188;5.712;2024-03-08T01:09:22;19.00;16.00;11.25
71794;PMS7003;59641;45.188;5.712;2024-03-08T01:11:48;13.75;13.50;10.00
71794;PMS7003;59641;45.188;5.712;2024-03-08T01:14:14;15.25;14.50;10.75
71794;PMS7003;59641;45.188;5.712;2024-03-08T01:16:39;14.00;9.00;8.00
71794;PMS7003;59641;45.188;5.712;2024-03-08T01:19:06;14.50;12.25;8.75
71794;PMS7003;59641;45.188;5.712;2024-03-08T01:21:31;12.50;11.75;8.00
71794;PMS7003;59641;45.188;5.712;2024-03-08T01:23:56;12.00;11.25;9.00
71794;PMS7003;59641;45.188;5.712;2024-03-08T01:26:22;10.50;10.50;8.00
71794;PMS7003;59641;45.188;5.712;2024-03-08T01:28:48;12.00;10.00;7.50
71794;PMS7003;59641;45.188;5.712;2024-03-08T01:31:14;9.25;9.25;6.00
71794;PMS7003;59641;45.188;5.712;2024-03-08T01:33:40;10.25;10.25;6.75
71794;PMS7003;59641;45.188;5.712;2024-03-08T01:36:07;10.25;8.00;7.00
71794;PMS7003;59641;45.188;5.712;2024-03-08T01:38:32;14.00;12.00;9.00
71794;PMS7003;59641;45.188;5.712;2024-03-08T01:40:58;11.00;10.00;8.75
71794;PMS7003;59641;45.188;5.712;2024-03-08T01:43:27;11.25;10.75;8.25
71794;PMS7003;59641;45.188;5.712;2024-03-08T01:45:54;9.75;9.75;8.00
71794;PMS7003;59641;45.188;5.712;2024-03-08T01:48:23;10.25;9.50;8.50
71794;PMS7003;59641;45.188;5.712;2024-03-08T01:50:49;10.00;8.00;7.00
71794;PMS7003;59641;45.188;5.712;2024-03-08T01:53:16;10.00;9.75;7.75
71794;PMS7003;59641;45.188;5.712;2024-03-08T01:55:44;10.25;10.00;8.00
71794;PMS7003;59641;45.188;5.712;2024-03-08T01:58:11;9.50;8.50;7.00
71794;PMS7003;59641;45.188;5.712;2024-03-08T02:00:44;11.25;10.00;8.25
71794;PMS7003;59641;45.188;5.712;2024-03-08T02:03:14;8.00;8.00;7.00
71794;PMS7003;59641;45.188;5.712;2024-03-08T02:05:42;8.00;7.50;5.50
71794;PMS7003;59641;45.188;5.712;2024-03-08T02:08:08;10.50;10.25;7.00
71794;PMS7003;59641;45.188;5.712;2024-03-08T02:10:38;10.75;10.75;7.00
71794;PMS7003;59641;45.188;5.712;2024-03-08T02:13:04;8.00;7.00;5.00
71794;PMS7003;59641;45.188;5.712;2024-03-08T02:18:29;13.00;11.00;7.50
71794;PMS7003;59641;45.188;5.712;2024-03-08T02:20:55;13.67;11.33;9.00
71794;PMS7003;59641;45.188;5.712;2024-03-08T02:23:22;12.00;12.00;9.50
71794;PMS7003;59641;45.188;5.712;2024-03-08T02:25:50;11.50;10.75;9.00
71794;PMS7003;59641;45.188;5.712;2024-03-08T02:28:16;16.25;11.50;9.25
71794;PMS7003;59641;45.188;5.712;2024-03-08T02:30:43;11.00;10.00;7.50
71794;PMS7003;59641;45.188;5.712;2024-03-08T02:33:09;10.25;8.50;7.00
71794;PMS7003;59641;45.188;5.712;2024-03-08T02:35:35;13.00;11.00;8.25
71794;PMS7003;59641;45.188;5.712;2024-03-08T02:38:01;11.75;11.00;8.00
71794;PMS7003;59641;45.188;5.712;2024-03-08T02:40:28;11.50;11.25;9.00
71794;PMS7003;59641;45.188;5.712;2024-03-08T02:42:54;10.75;10.25;7.25
71794;PMS7003;59641;45.188;5.712;2024-03-08T02:45:19;12.00;9.25;7.00
71794;PMS7003;59641;45.188;5.712;2024-03-08T02:47:45;9.75;9.75;6.00
71794;PMS7003;59641;45.188;5.712;2024-03-08T02:50:11;9.00;8.50;6.00
71794;PMS7003;59641;45.188;5.712;2024-03-08T02:52:36;9.75;9.75;8.00
71794;PMS7003;59641;45.188;5.712;2024-03-08T02:55:02;12.50;12.50;9.00
71794;PMS7003;59641;45.188;5.712;2024-03-08T02:57:28;13.50;12.00;9.75
71794;PMS7003;59641;45.188;5.712;2024-03-08T02:59:53;8.25;8.25;5.75
71794;PMS7003;59641;45.188;5.712;2024-03-08T03:02:19;11.25;11.25;8.75
71794;PMS7003;59641;45.188;5.712;2024-03-08T03:04:44;11.25;11.00;8.00
71794;PMS7003;59641;45.188;5.712;2024-03-08T03:07:10;13.00;12.00;8.00
71794;PMS7003;59641;45.188;5.712;2024-03-08T03:09:36;11.50;10.50;8.00
71794;PMS7003;59641;45.188;5.712;2024-03-08T03:12:01;10.25;10.25;7.25
71794;PMS7003;59641;45.188;5.712;2024-03-08T03:14:27;11.75;11.75;8.50
71794;PMS7003;59641;45.188;5.712;2024-03-08T03:16:53;8.50;8.00;5.75
71794;PMS7003;59641;45.188;5.712;2024-03-08T03:19:19;9.00;8.00;5.00
71794;PMS7003;59641;45.188;5.712;2024-03-08T03:21:45;14.50;11.25;7.00
71794;PMS7003;59641;45.188;5.712;2024-03-08T03:24:11;9.25;8.75;6.25
71794;PMS7003;59641;45.188;5.712;2024-03-08T03:26:37;11.00;9.50;7.00
71794;PMS7003;59641;45.188;5.712;2024-03-08T03:29:06;12.00;11.25;8.75
71794;PMS7003;59641;45.188;5.712;2024-03-08T03:31:34;10.00;9.00;7.00
71794;PMS7003;59641;45.188;5.712;2024-03-08T03:33:59;11.50;11.50;9.00
71794;PMS7003;59641;45.188;5.712;2024-03-08T03:36:28;16.25;14.50;8.50
71794;PMS7003;59641;45.188;5.712;2024-03-08T03:38:54;13.00;10.25;8.50
71794;PMS7003;59641;45.188;5.712;2024-03-08T03:41:30;13.25;11.00;9.25
71794;PMS7003;59641;45.188;5.712;2024-03-08T03:43:55;13.75;12.50;9.25
71794;PMS7003;59641;45.188;5.712;2024-03-08T03:46:21;15.00;13.50;9.50
71794;PMS7003;59641;45.188;5.712;2024-03-08T03:48:46;14.50;12.75;10.75
71794;PMS7003;59641;45.188;5.712;2024-03-08T03:51:11;13.00;13.00;9.25
71794;PMS7003;59641;45.188;5.712;2024-03-08T03:53:37;12.00;12.00;9.50
71794;PMS7003;59641;45.188;5.712;2024-03-08T03:56:03;10.50;10.50;8.00
71794;PMS7003;59641;45.188;5.712;2024-03-08T03:58:31;12.25;10.00;8.25
71794;PMS7003;59641;45.188;5.712;2024-03-08T04:00:57;11.75;11.75;9.00
71794;PMS7003;59641;45.188;5.712;2024-03-08T04:03:23;11.00;10.75;7.00
71794;PMS7003;59641;45.188;5.712;2024-03-08T04:05:48;13.00;11.75;8.00
71794;PMS7003;59641;45.188;5.712;2024-03-08T04:08:13;12.00;12.00;9.00
71794;PMS7003;59641;45.188;5.712;2024-03-08T04:10:39;13.00;12.00;9.00
71794;PMS7003;59641;45.188;5.712;2024-03-08T04:13:06;9.50;9.50;8.00
71794;PMS7003;59641;45.188;5.712;2024-03-08T04:15:32;8.00;8.00;5.00
71794;PMS7003;59641;45.188;5.712;2024-03-08T04:17:58;10.50;9.50;6.75
71794;PMS7003;59641;45.188;5.712;2024-03-08T04:20:25;8.25;7.50;5.75
71794;PMS7003;59641;45.188;5.712;2024-03-08T04:22:50;13.75;10.00;8.00
71794;PMS7003;59641;45.188;5.712;2024-03-08T04:25:16;10.00;8.25;6.50
71794;PMS7003;59641;45.188;5.712;2024-03-08T04:27:41;11.75;10.50;8.00
71794;PMS7003;59641;45.188;5.712;2024-03-08T04:30:07;7.33;7.33;6.67
71794;PMS7003;59641;45.188;5.712;2024-03-08T04:32:33;10.25;10.25;8.00
71794;PMS7003;59641;45.188;5.712;2024-03-08T04:34:59;11.50;10.25;8.00
71794;PMS7003;59641;45.188;5.712;2024-03-08T04:37:26;13.50;10.25;7.75
71794;PMS7003;59641;45.188;5.712;2024-03-08T04:39:51;13.25;11.75;8.00
71794;PMS7003;59641;45.188;5.712;2024-03-08T04:42:17;13.25;13.00;8.00
71794;PMS7003;59641;45.188;5.712;2024-03-08T04:44:43;12.50;12.50;9.50
71794;PMS7003;59641;45.188;5.712;2024-03-08T04:47:08;13.50;10.25;8.00
71794;PMS7003;59641;45.188;5.712;2024-03-08T04:49:35;12.00;10.75;8.00
71794;PMS7003;59641;45.188;5.712;2024-03-08T04:52:04;11.25;9.25;7.75
71794;PMS7003;59641;45.188;5.712;2024-03-08T04:54:29;11.00;11.00;8.00
71794;PMS7003;59641;45.188;5.712;2024-03-08T04:56:55;7.50;7.00;6.00
71794;PMS7003;59641;45.188;5.712;2024-03-08T04:59:21;12.75;12.50;10.00
71794;PMS7003;59641;45.188;5.712;2024-03-08T05:01:46;17.75;14.00;11.25
71794;PMS7003;59641;45.188;5.712;2024-03-08T05:04:12;13.00;13.00;9.25
71794;PMS7003;59641;45.188;5.712;2024-03-08T05:06:38;16.25;13.25;9.75
71794;PMS7003;59641;45.188;5.712;2024-03-08T05:09:03;10.75;9.50;7.00
71794;PMS7003;59641;45.188;5.712;2024-03-08T05:11:42;17.50;12.50;9.00
71794;PMS7003;59641;45.188;5.712;2024-03-08T05:14:09;15.00;12.00;9.00
71794;PMS7003;59641;45.188;5.712;2024-03-08T05:16:35;14.33;12.33;9.67
71794;PMS7003;59641;45.188;5.712;2024-03-08T05:19:00;12.50;12.50;8.75
71794;PMS7003;59641;45.188;5.712;2024-03-08T05:21:26;13.75;11.50;9.00
71794;PMS7003;59641;45.188;5.712;2024-03-08T05:23:53;12.25;12.25;8.00
71794;PMS7003;59641;45.188;5.712;2024-03-08T05:26:19;15.50;11.00;7.00
71794;PMS7003;59641;45.188;5.712;2024-03-08T05:28:45;10.75;10.75;9.00
71794;PMS7003;59641;45.188;5.712;2024-03-08T05:31:17;11.50;11.00;8.50
71794;PMS7003;59641;45.188;5.712;2024-03-08T05:33:44;13.75;10.50;6.75
71794;PMS7003;59641;45.188;5.712;2024-03-08T05:36:09;9.50;9.50;6.75
71794;PMS7003;59641;45.188;5.712;2024-03-08T05:38:36;12.75;11.50;7.50
71794;PMS7003;59641;45.188;5.712;2024-03-08T05:41:02;12.25;12.00;8.00
71794;PMS7003;59641;45.188;5.712;2024-03-08T05:43:27;11.75;11.25;9.00
71794;PMS7003;59641;45.188;5.712;2024-03-08T05:45:52;14.00;11.00;9.00
71794;PMS7003;59641;45.188;5.712;2024-03-08T05:48:18;11.50;9.75;8.00
71794;PMS7003;59641;45.188;5.712;2024-03-08T05:50:43;9.50;9.00;7.50
71794;PMS7003;59641;45.188;5.712;2024-03-08T05:53:09;13.00;11.75;8.00
71794;PMS7003;59641;45.188;5.712;2024-03-08T05:55:34;12.75;11.75;8.00
71794;PMS7003;59641;45.188;5.712;2024-03-08T05:58:00;15.25;14.75;8.00
71794;PMS7003;59641;45.188;5.712;2024-03-08T06:00:26;12.75;11.25;9.00
71794;PMS7003;59641;45.188;5.712;2024-03-08T06:02:52;14.75;13.50;9.00
71794;PMS7003;59641;45.188;5.712;2024-03-08T06:05:17;21.25;15.00;11.00
71794;PMS7003;59641;45.188;5.712;2024-03-08T06:07:43;18.00;14.50;9.25
71794;PMS7003;59641;45.188;5.712;2024-03-08T06:10:08;13.25;11.75;8.75
71794;PMS7003;59641;45.188;5.712;2024-03-08T06:12:38;9.50;9.50;8.25
71794;PMS7003;59641;45.188;5.712;2024-03-08T06:15:09;16.00;13.75;10.00
71794;PMS7003;59641;45.188;5.712;2024-03-08T06:17:35;10.50;10.50;8.00
71794;PMS7003;59641;45.188;5.712;2024-03-08T06:20:01;12.25;12.00;8.00
71794;PMS7003;59641;45.188;5.712;2024-03-08T06:22:28;12.00;12.00;9.25
71794;PMS7003;59641;45.188;5.712;2024-03-08T06:24:55;16.75;15.00;9.00
71794;PMS7003;59641;45.188;5.712;2024-03-08T06:27:20;8.50;7.75;7.75
71794;PMS7003;59641;45.188;5.712;2024-03-08T06:29:46;15.50;12.00;8.00
71794;PMS7003;59641;45.188;5.712;2024-03-08T06:32:14;14.50;14.50;11.25
71794;PMS7003;59641;45.188;5.712;2024-03-08T06:34:40;20.75;15.25;11.50
71794;PMS7003;59641;45.188;5.712;2024-03-08T06:37:06;19.25;16.00;10.00
71794;PMS7003;59641;45.188;5.712;2024-03-08T06:39:31;17.25;16.00;10.00
71794;PMS7003;59641;45.188;5.712;2024-03-08T06:41:57;21.50;17.00;10.00
71794;PMS7003;59641;45.188;5.712;2024-03-08T06:44:23;14.50;12.00;9.50
71794;PMS7003;59641;45.188;5.712;2024-03-08T06:46:48;14.50;13.50;10.00
71794;PMS7003;59641;45.188;5.712;2024-03-08T06:49:13;15.75;15.00;9.75
71794;PMS7003;59641;45.188;5.712;2024-03-08T06:51:40;15.00;14.25;10.00
71794;PMS7003;59641;45.188;5.712;2024-03-08T06:54:06;16.75;14.50;10.00
71794;PMS7003;59641;45.188;5.712;2024-03-08T06:56:33;18.33;13.67;10.00
71794;PMS7003;59641;45.188;5.712;2024-03-08T06:58:59;18.00;14.67;10.33
71794;PMS7003;59641;45.188;5.712;2024-03-08T07:01:25;16.67;16.00;10.00
71794;PMS7003;59641;45.188;5.712;2024-03-08T07:03:50;19.33;15.33;10.00
71794;PMS7003;59641;45.188;5.712;2024-03-08T07:06:17;13.25;12.00;9.25
71794;PMS7003;59641;45.188;5.712;2024-03-08T07:08:44;18.67;18.00;11.00
71794;PMS7003;59641;45.188;5.712;2024-03-08T07:11:11;17.67;14.67;9.67
71794;PMS7003;59641;45.188;5.712;2024-03-08T07:13:36;16.00;12.67;9.00
71794;PMS7003;59641;45.188;5.712;2024-03-08T07:16:03;18.00;16.33;11.33
71794;PMS7003;59641;45.188;5.712;2024-03-08T07:18:30;17.00;14.75;10.75
71794;PMS7003;59641;45.188;5.712;2024-03-08T07:20:56;15.67;14.67;9.00
71794;PMS7003;59641;45.188;5.712;2024-03-08T07:23:22;15.67;14.67;10.67
71794;PMS7003;59641;45.188;5.712;2024-03-08T07:26:06;20.00;18.00;13.00
71794;PMS7003;59641;45.188;5.712;2024-03-08T07:28:31;18.33;17.00;11.00
71794;PMS7003;59641;45.188;5.712;2024-03-08T07:31:00;20.67;19.33;13.33
71794;PMS7003;59641;45.188;5.712;2024-03-08T07:33:37;23.00;19.67;14.33
71794;PMS7003;59641;45.188;5.712;2024-03-08T07:36:03;27.67;19.33;13.67
71794;PMS7003;59641;45.188;5.712;2024-03-08T07:38:29;21.33;20.33;13.00
71794;PMS7003;59641;45.188;5.712;2024-03-08T07:40:54;20.00;18.67;12.00
71794;PMS7003;59641;45.188;5.712;2024-03-08T07:43:22;19.50;18.75;11.75
71794;PMS7003;59641;45.188;5.712;2024-03-08T07:45:47;18.67;17.00;12.67
71794;PMS7003;59641;45.188;5.712;2024-03-08T07:48:12;19.00;16.67;9.67
71794;PMS7003;59641;45.188;5.712;2024-03-08T07:50:38;21.50;20.00;12.75
71794;PMS7003;59641;45.188;5.712;2024-03-08T07:53:04;15.50;14.75;11.25
71794;PMS7003;59641;45.188;5.712;2024-03-08T07:55:33;20.50;19.50;11.75
71794;PMS7003;59641;45.188;5.712;2024-03-08T07:58:00;24.00;22.33;15.00
71794;PMS7003;59641;45.188;5.712;2024-03-08T08:00:26;22.00;19.67;14.67
71794;PMS7003;59641;45.188;5.712;2024-03-08T08:02:52;19.50;19.50;12.00
71794;PMS7003;59641;45.188;5.712;2024-03-08T08:05:18;19.00;18.50;11.75
71794;PMS7003;59641;45.188;5.712;2024-03-08T08:07:46;21.33;19.00;13.33
71794;PMS7003;59641;45.188;5.712;2024-03-08T08:10:12;20.33;18.33;12.33
71794;PMS7003;59641;45.188;5.712;2024-03-08T08:12:46;24.67;22.33;15.00
71794;PMS7003;59641;45.188;5.712;2024-03-08T08:15:14;28.33;22.67;16.33
71794;PMS7003;59641;45.188;5.712;2024-03-08T08:17:46;19.67;19.00;15.00
71794;PMS7003;59641;45.188;5.712;2024-03-08T08:20:15;19.00;18.75;12.50
71794;PMS7003;59641;45.188;5.712;2024-03-08T08:22:41;24.67;22.00;14.00
71794;PMS7003;59641;45.188;5.712;2024-03-08T08:25:08;18.00;17.00;12.00
71794;PMS7003;59641;45.188;5.712;2024-03-08T08:27:34;22.67;19.67;13.33
71794;PMS7003;59641;45.188;5.712;2024-03-08T08:30:01;17.00;15.00;11.00
71794;PMS7003;59641;45.188;5.712;2024-03-08T08:32:27;19.33;18.00;11.00
71794;PMS7003;59641;45.188;5.712;2024-03-08T08:34:53;22.67;19.33;14.00
71794;PMS7003;59641;45.188;5.712;2024-03-08T08:37:18;27.00;23.67;13.33
71794;PMS7003;59641;45.188;5.712;2024-03-08T08:39:43;22.00;21.00;14.00
71794;PMS7003;59641;45.188;5.712;2024-03-08T08:42:09;22.67;20.00;14.00
71794;PMS7003;59641;45.188;5.712;2024-03-08T08:44:34;22.00;19.75;15.00
71794;PMS7003;59641;45.188;5.712;2024-03-08T08:47:00;22.00;19.00;13.00
71794;PMS7003;59641;45.188;5.712;2024-03-08T08:49:26;27.67;23.67;16.00
71794;PMS7003;59641;45.188;5.712;2024-03-08T08:51:51;21.00;21.00;15.33
71794;PMS7003;59641;45.188;5.712;2024-03-08T08:54:17;26.33;24.00;15.33
71794;PMS7003;59641;45.188;5.712;2024-03-08T08:56:43;24.00;22.33;15.67
71794;PMS7003;59641;45.188;5.712;2024-03-08T08:59:09;24.00;21.00;16.00
71794;PMS7003;59641;45.188;5.712;2024-03-08T09:01:35;25.67;20.67;13.33
71794;PMS7003;59641;45.188;5.712;2024-03-08T09:04:00;20.67;19.67;13.33
71794;PMS7003;59641;45.188;5.712;2024-03-08T09:06:25;25.00;20.67;13.33
71794;PMS7003;59641;45.188;5.712;2024-03-08T09:08:51;17.75;16.50;11.75
71794;PMS7003;59641;45.188;5.712;2024-03-08T09:11:16;19.67;18.33;13.33
71794;PMS7003;59641;45.188;5.712;2024-03-08T09:13:44;16.00;15.67;11.67
71794;PMS7003;59641;45.188;5.712;2024-03-08T09:16:11;15.00;15.00;12.00
71794;PMS7003;59641;45.188;5.712;2024-03-08T09:18:36;18.67;16.00;12.00
71794;PMS7003;59641;45.188;5.712;2024-03-08T09:21:01;22.00;19.00;13.33
71794;PMS7003;59641;45.188;5.712;2024-03-08T09:23:28;20.00;19.50;13.75
71794;PMS7003;59641;45.188;5.712;2024-03-08T09:25:58;15.00;15.00;11.25
71794;PMS7003;59641;45.188;5.712;2024-03-08T09:28:23;23.33;17.33;10.67
71794;PMS7003;59641;45.188;5.712;2024-03-08T09:30:49;21.67;17.67;12.67
71794;PMS7003;59641;45.188;5.712;2024-03-08T09:33:15;21.67;21.67;15.00
71794;PMS7003;59641;45.188;5.712;2024-03-08T09:35:44;20.00;16.00;12.00
71794;PMS7003;59641;45.188;5.712;2024-03-08T09:38:13;17.75;16.50;12.75
71794;PMS7003;59641;45.188;5.712;2024-03-08T09:40:42;26.00;21.50;12.00
71794;PMS7003;59641;45.188;5.712;2024-03-08T09:43:09;18.50;17.75;11.75
71794;PMS7003;59641;45.188;5.712;2024-03-08T09:45:36;15.33;14.00;11.33
71794;PMS7003;59641;45.188;5.712;2024-03-08T09:48:15;18.00;18.00;13.50
71794;PMS7003;59641;45.188;5.712;2024-03-08T09:50:42;18.75;16.25;12.00
71794;PMS7003;59641;45.188;5.712;2024-03-08T09:53:08;21.00;19.33;12.00
71794;PMS7003;59641;45.188;5.712;2024-03-08T09:55:36;17.00;15.33;11.33
71794;PMS7003;59641;45.188;5.712;2024-03-08T09:58:02;20.33;17.00;11.33
71794;PMS7003;59641;45.188;5.712;2024-03-08T10:00:49;16.75;14.00;10.00
71794;PMS7003;59641;45.188;5.712;2024-03-08T10:03:15;15.00;15.00;10.50
71794;PMS7003;59641;45.188;5.712;2024-03-08T10:05:41;18.67;18.00;11.00
71794;PMS7003;59641;45.188;5.712;2024-03-08T10:08:06;16.50;13.00;10.00
71794;PMS7003;59641;45.188;5.712;2024-03-08T10:10:33;15.25;14.00;10.25
71794;PMS7003;59641;45.188;5.712;2024-03-08T10:13:00;16.75;13.00;10.00
71794;PMS7003;59641;45.188;5.712;2024-03-08T10:15:28;12.50;12.50;9.25
71794;PMS7003;59641;45.188;5.712;2024-03-08T10:17:55;14.00;14.00;9.25
71794;PMS7003;59641;45.188;5.712;2024-03-08T10:20:21;16.25;15.25;10.50
71794;PMS7003;59641;45.188;5.712;2024-03-08T10:22:48;14.00;13.00;10.00
71794;PMS7003;59641;45.188;5.712;2024-03-08T10:25:14;14.25;13.75;9.50
71794;PMS7003;59641;45.188;5.712;2024-03-08T10:27:40;16.25;12.75;9.75
71794;PMS7003;59641;45.188;5.712;2024-03-08T10:30:08;16.00;14.00;10.00
71794;PMS7003;59641;45.188;5.712;2024-03-08T10:32:37;11.50;11.25;7.75
71794;PMS7003;59641;45.188;5.712;2024-03-08T10:35:04;13.50;11.50;8.75
71794;PMS7003;59641;45.188;5.712;2024-03-08T10:37:29;14.75;13.75;9.50
71794;PMS7003;59641;45.188;5.712;2024-03-08T10:40:02;13.25;13.25;9.00
71794;PMS7003;59641;45.188;5.712;2024-03-08T10:42:40;12.75;12.25;8.00
71794;PMS7003;59641;45.188;5.712;2024-03-08T10:45:15;11.25;11.25;9.00
71794;PMS7003;59641;45.188;5.712;2024-03-08T10:50:58;10.00;9.50;6.25
71794;PMS7003;59641;45.188;5.712;2024-03-08T10:53:27;15.00;13.00;9.00
71794;PMS7003;59641;45.188;5.712;2024-03-08T10:55:54;10.00;9.50;7.25
71794;PMS7003;59641;45.188;5.712;2024-03-08T10:58:21;9.25;8.75;6.00
71794;PMS7003;59641;45.188;5.712;2024-03-08T11:00:51;11.20;9.20;7.00
71794;PMS7003;59641;45.188;5.712;2024-03-08T11:06:08;12.00;10.00;7.50
71794;PMS7003;59641;45.188;5.712;2024-03-08T11:08:48;11.00;10.00;6.75
71794;PMS7003;59641;45.188;5.712;2024-03-08T11:11:28;12.75;8.00;7.00
71794;PMS7003;59641;45.188;5.712;2024-03-08T11:13:55;13.75;9.50;8.00
71794;PMS7003;59641;45.188;5.712;2024-03-08T11:18:54;10.00;8.75;6.75
71794;PMS7003;59641;45.188;5.712;2024-03-08T11:21:20;10.00;9.00;7.00
71794;PMS7003;59641;45.188;5.712;2024-03-08T11:24:01;10.25;10.00;7.50
71794;PMS7003;59641;45.188;5.712;2024-03-08T11:26:39;12.00;10.00;7.50
71794;PMS7003;59641;45.188;5.712;2024-03-08T11:32:03;13.75;11.75;9.00
71794;PMS7003;59641;45.188;5.712;2024-03-08T11:34:35;9.75;9.75;8.00
71794;PMS7003;59641;45.188;5.712;2024-03-08T11:37:04;10.25;10.00;7.00
71794;PMS7003;59641;45.188;5.712;2024-03-08T11:39:34;11.50;11.00;8.00
71794;PMS7003;59641;45.188;5.712;2024-03-08T11:42:02;14.75;13.75;9.00
71794;PMS7003;59641;45.188;5.712;2024-03-08T11:44:27;10.00;10.00;7.00
71794;PMS7003;59641;45.188;5.712;2024-03-08T11:46:53;20.00;15.25;10.00
71794;PMS7003;59641;45.188;5.712;2024-03-08T11:49:19;15.75;14.75;11.25
71794;PMS7003;59641;45.188;5.712;2024-03-08T11:51:44;16.25;16.00;12.00
71794;PMS7003;59641;45.188;5.712;2024-03-08T11:54:11;16.50;16.50;12.00
71794;PMS7003;59641;45.188;5.712;2024-03-08T11:56:40;15.75;14.50;11.25
71794;PMS7003;59641;45.188;5.712;2024-03-08T11:59:10;18.00;15.25;11.00
71794;PMS7003;59641;45.188;5.712;2024-03-08T12:01:37;18.50;15.50;12.00
71794;PMS7003;59641;45.188;5.712;2024-03-08T12:04:03;12.00;11.50;9.00
71794;PMS7003;59641;45.188;5.712;2024-03-08T12:06:40;14.50;14.50;9.75
71794;PMS7003;59641;45.188;5.712;2024-03-08T12:09:12;17.25;15.25;10.00
71794;PMS7003;59641;45.188;5.712;2024-03-08T12:11:38;13.00;13.00;10.00
71794;PMS7003;59641;45.188;5.712;2024-03-08T12:14:03;15.00;12.75;10.50
71794;PMS7003;59641;45.188;5.712;2024-03-08T12:16:30;15.25;14.50;10.25
71794;PMS7003;59641;45.188;5.712;2024-03-08T12:18:55;15.50;14.75;10.00
71794;PMS7003;59641;45.188;5.712;2024-03-08T12:21:21;18.50;17.25;12.25
71794;PMS7003;59641;45.188;5.712;2024-03-08T12:23:51;15.25;14.75;10.75
71794;PMS7003;59641;45.188;5.712;2024-03-08T12:26:28;17.25;16.00;9.25
71794;PMS7003;59641;45.188;5.712;2024-03-08T12:28:53;14.25;13.00;9.50
71794;PMS7003;59641;45.188;5.712;2024-03-08T12:31:18;13.75;13.75;9.75
71794;PMS7003;59641;45.188;5.712;2024-03-08T12:33:50;14.75;14.25;9.75
71794;PMS7003;59641;45.188;5.712;2024-03-08T12:36:16;15.00;15.00;11.50
71794;PMS7003;59641;45.188;5.712;2024-03-08T12:38:43;12.75;12.75;9.00
71794;PMS7003;59641;45.188;5.712;2024-03-08T12:41:12;12.25;11.25;6.50
71794;PMS7003;59641;45.188;5.712;2024-03-08T12:43:38;13.75;12.00;9.25
71794;PMS7003;59641;45.188;5.712;2024-03-08T12:46:04;18.50;14.00;10.75
71794;PMS7003;59641;45.188;5.712;2024-03-08T12:48:40;19.00;16.00;11.25
71794;PMS7003;59641;45.188;5.712;2024-03-08T12:51:08;15.00;13.75;11.00
71794;PMS7003;59641;45.188;5.712;2024-03-08T12:53:34;15.25;14.75;10.00
71794;PMS7003;59641;45.188;5.712;2024-03-08T12:55:59;12.25;11.75;8.00
71794;PMS7003;59641;45.188;5.712;2024-03-08T12:58:25;14.00;13.50;9.50
71794;PMS7003;59641;45.188;5.712;2024-03-08T13:00:51;13.25;13.25;9.00
71794;PMS7003;59641;45.188;5.712;2024-03-08T13:03:16;13.50;12.50;9.75
71794;PMS7003;59641;45.188;5.712;2024-03-08T13:05:42;14.00;14.00;10.25
71794;PMS7003;59641;45.188;5.712;2024-03-08T13:08:08;14.75;13.50;10.00
71794;PMS7003;59641;45.188;5.712;2024-03-08T13:10:41;14.00;14.00;9.25
71794;PMS7003;59641;45.188;5.712;2024-03-08T13:13:10;15.75;11.25;7.25
71794;PMS7003;59641;45.188;5.712;2024-03-08T13:15:37;18.00;15.00;10.75
71794;PMS7003;59641;45.188;5.712;2024-03-08T13:18:02;23.25;20.75;12.75
71794;PMS7003;59641;45.188;5.712;2024-03-08T13:20:28;15.00;14.00;11.00
71794;PMS7003;59641;45.188;5.712;2024-03-08T13:22:54;16.25;14.75;11.75
71794;PMS7003;59641;45.188;5.712;2024-03-08T13:25:20;15.00;15.00;10.25
71794;PMS7003;59641;45.188;5.712;2024-03-08T13:27:46;16.75;16.75;11.00
71794;PMS7003;59641;45.188;5.712;2024-03-08T13:30:12;12.50;9.75;7.25
71794;PMS7003;59641;45.188;5.712;2024-03-08T13:32:42;13.50;10.75;8.75
71794;PMS7003;59641;45.188;5.712;2024-03-08T13:35:10;15.00;13.00;9.75
71794;PMS7003;59641;45.188;5.712;2024-03-08T13:37:40;17.25;17.25;12.00
71794;PMS7003;59641;45.188;5.712;2024-03-08T13:40:06;13.75;11.75;7.50
71794;PMS7003;59641;45.188;5.712;2024-03-08T13:42:37;14.50;11.25;9.50
71794;PMS7003;59641;45.188;5.712;2024-03-08T13:45:03;15.00;14.25;12.00
71794;PMS7003;59641;45.188;5.712;2024-03-08T13:47:32;18.00;15.75;10.00
71794;PMS7003;59641;45.188;5.712;2024-03-08T13:49:57;12.25;10.75;9.75
71794;PMS7003;59641;45.188;5.712;2024-03-08T13:52:23;13.75;13.25;9.75
71794;PMS7003;59641;45.188;5.712;2024-03-08T13:54:50;15.25;14.00;9.00
71794;PMS7003;59641;45.188;5.712;2024-03-08T13:57:16;14.00;12.75;10.00
71794;PMS7003;59641;45.188;5.712;2024-03-08T13:59:42;13.00;12.25;8.25
71794;PMS7003;59641;45.188;5.712;2024-03-08T14:02:07;9.00;9.00;7.00
71794;PMS7003;59641;45.188;5.712;2024-03-08T14:04:35;7.75;7.75;6.25
71794;PMS7003;59641;45.188;5.712;2024-03-08T14:07:03;11.00;11.00;8.25